sensor_id;sensor_type;location;lat;lon;timestamp;P1;durP1;ratioP1;P2;durP2;ratioP2
72117;SDS011;59992;47.490;8.736;2023-05-02T00:01:08;4.20;;;2.50;;
72117;SDS011;59992;47.490;8.736;2023-05-02T00:03:58;4.50;;;2.40;;
72117;SDS011;59992;47.490;8.736;2023-05-02T00:06:49;3.20;;;2.10;;
72117;SDS011;59992;47.490;8.736;2023-05-02T00:09:40;5.40;;;2.40;;
72117;SDS011;59992;47.490;8.736;2023-05-02T00:12:30;5.70;;;3.00;;
72117;SDS011;59992;47.490;8.736;2023-05-02T00:15:21;5.20;;;2.50;;
72117;SDS011;59992;47.490;8.736;2023-05-02T00:18:13;7.10;;;2.80;;
72117;SDS011;59992;47.490;8.736;2023-05-02T00:21:04;5.40;;;2.70;;
72117;SDS011;59992;47.490;8.736;2023-05-02T00:23:54;6.10;;;2.40;;
72117;SDS011;59992;47.490;8.736;2023-05-02T00:26:45;4.20;;;1.90;;
72117;SDS011;59992;47.490;8.736;2023-05-02T00:29:35;4.20;;;2.60;;
72117;SDS011;59992;47.490;8.736;2023-05-02T00:32:25;4.40;;;2.30;;
72117;SDS011;59992;47.490;8.736;2023-05-02T00:35:15;3.70;;;2.30;;
72117;SDS011;59992;47.490;8.736;2023-05-02T00:38:05;3.20;;;2.50;;
72117;SDS011;59992;47.490;8.736;2023-05-02T00:40:55;3.90;;;2.40;;
72117;SDS011;59992;47.490;8.736;2023-05-02T00:43:45;4.60;;;2.20;;
72117;SDS011;59992;47.490;8.736;2023-05-02T00:46:36;5.60;;;2.60;;
72117;SDS011;59992;47.490;8.736;2023-05-02T00:49:26;6.30;;;2.50;;
72117;SDS011;59992;47.490;8.736;2023-05-02T00:52:17;3.70;;;2.40;;
72117;SDS011;59992;47.490;8.736;2023-05-02T00:55:08;3.90;;;2.50;;
72117;SDS011;59992;47.490;8.736;2023-05-02T00:57:58;3.30;;;2.30;;
72117;SDS011;59992;47.490;8.736;2023-05-02T01:00:54;4.10;;;2.50;;
72117;SDS011;59992;47.490;8.736;2023-05-02T01:03:58;6.20;;;3.00;;
72117;SDS011;59992;47.490;8.736;2023-05-02T01:06:56;4.50;;;2.90;;
72117;SDS011;59992;47.490;8.736;2023-05-02T01:10:00;4.10;;;2.90;;
72117;SDS011;59992;47.490;8.736;2023-05-02T01:12:59;3.90;;;2.70;;
72117;SDS011;59992;47.490;8.736;2023-05-02T01:15:55;4.00;;;2.60;;
72117;SDS011;59992;47.490;8.736;2023-05-02T01:18:48;3.90;;;2.60;;
72117;SDS011;59992;47.490;8.736;2023-05-02T01:21:39;3.90;;;2.60;;
72117;SDS011;59992;47.490;8.736;2023-05-02T01:24:31;4.20;;;3.00;;
72117;SDS011;59992;47.490;8.736;2023-05-02T01:27:30;3.70;;;2.60;;
72117;SDS011;59992;47.490;8.736;2023-05-02T01:30:27;4.40;;;2.30;;
72117;SDS011;59992;47.490;8.736;2023-05-02T01:33:21;4.00;;;2.40;;
72117;SDS011;59992;47.490;8.736;2023-05-02T01:36:12;4.00;;;2.60;;
72117;SDS011;59992;47.490;8.736;2023-05-02T01:39:05;3.10;;;2.20;;
72117;SDS011;59992;47.490;8.736;2023-05-02T01:41:57;3.40;;;2.40;;
72117;SDS011;59992;47.490;8.736;2023-05-02T01:44:49;5.90;;;2.50;;
72117;SDS011;59992;47.490;8.736;2023-05-02T01:47:42;3.70;;;2.60;;
72117;SDS011;59992;47.490;8.736;2023-05-02T01:50:34;3.90;;;2.40;;
72117;SDS011;59992;47.490;8.736;2023-05-02T01:53:28;4.60;;;2.40;;
72117;SDS011;59992;47.490;8.736;2023-05-02T01:56:22;4.60;;;2.80;;
72117;SDS011;59992;47.490;8.736;2023-05-02T01:59:14;3.30;;;2.20;;
72117;SDS011;59992;47.490;8.736;2023-05-02T02:02:07;4.80;;;2.60;;
72117;SDS011;59992;47.490;8.736;2023-05-02T02:04:58;5.40;;;2.30;;
72117;SDS011;59992;47.490;8.736;2023-05-02T02:07:52;4.90;;;2.20;;
72117;SDS011;59992;47.490;8.736;2023-05-02T02:10:44;3.60;;;2.40;;
72117;SDS011;59992;47.490;8.736;2023-05-02T02:13:41;3.90;;;2.20;;
72117;SDS011;59992;47.490;8.736;2023-05-02T02:16:36;3.70;;;2.50;;
72117;SDS011;59992;47.490;8.736;2023-05-02T02:19:29;4.90;;;2.20;;
72117;SDS011;59992;47.490;8.736;2023-05-02T02:22:20;3.60;;;2.30;;
72117;SDS011;59992;47.490;8.736;2023-05-02T02:25:14;6.20;;;2.30;;
72117;SDS011;59992;47.490;8.736;2023-05-02T02:28:06;3.40;;;2.40;;
72117;SDS011;59992;47.490;8.736;2023-05-02T02:30:56;3.70;;;2.40;;
72117;SDS011;59992;47.490;8.736;2023-05-02T02:33:46;7.50;;;2.40;;
72117;SDS011;59992;47.490;8.736;2023-05-02T02:36:38;3.40;;;2.40;;
72117;SDS011;59992;47.490;8.736;2023-05-02T02:39:38;5.00;;;2.80;;
72117;SDS011;59992;47.490;8.736;2023-05-02T02:42:36;3.00;;;2.00;;
72117;SDS011;59992;47.490;8.736;2023-05-02T02:45:34;4.10;;;2.10;;
72117;SDS011;59992;47.490;8.736;2023-05-02T02:48:28;5.40;;;2.00;;
72117;SDS011;59992;47.490;8.736;2023-05-02T02:51:24;4.70;;;1.70;;
72117;SDS011;59992;47.490;8.736;2023-05-02T02:54:20;3.00;;;2.30;;
72117;SDS011;59992;47.490;8.736;2023-05-02T02:57:17;6.20;;;2.20;;
72117;SDS011;59992;47.490;8.736;2023-05-02T03:00:12;3.40;;;1.90;;
72117;SDS011;59992;47.490;8.736;2023-05-02T03:03:07;9.20;;;2.20;;
72117;SDS011;59992;47.490;8.736;2023-05-02T03:05:59;2.80;;;2.00;;
72117;SDS011;59992;47.490;8.736;2023-05-02T03:08:51;3.30;;;1.90;;
72117;SDS011;59992;47.490;8.736;2023-05-02T03:11:41;5.70;;;2.50;;
72117;SDS011;59992;47.490;8.736;2023-05-02T03:14:32;4.10;;;1.90;;
72117;SDS011;59992;47.490;8.736;2023-05-02T03:17:23;3.50;;;2.20;;
72117;SDS011;59992;47.490;8.736;2023-05-02T03:20:13;3.60;;;2.10;;
72117;SDS011;59992;47.490;8.736;2023-05-02T03:23:03;2.20;;;1.70;;
72117;SDS011;59992;47.490;8.736;2023-05-02T03:25:53;4.10;;;2.10;;
72117;SDS011;59992;47.490;8.736;2023-05-02T03:28:43;4.30;;;2.10;;
72117;SDS011;59992;47.490;8.736;2023-05-02T03:31:34;6.10;;;2.10;;
72117;SDS011;59992;47.490;8.736;2023-05-02T03:34:24;3.40;;;2.30;;
72117;SDS011;59992;47.490;8.736;2023-05-02T03:37:14;2.50;;;1.80;;
72117;SDS011;59992;47.490;8.736;2023-05-02T03:40:04;4.70;;;2.00;;
72117;SDS011;59992;47.490;8.736;2023-05-02T03:42:56;4.20;;;2.10;;
72117;SDS011;59992;47.490;8.736;2023-05-02T03:45:46;3.00;;;2.20;;
72117;SDS011;59992;47.490;8.736;2023-05-02T03:48:36;3.10;;;2.00;;
72117;SDS011;59992;47.490;8.736;2023-05-02T03:51:26;5.10;;;2.30;;
72117;SDS011;59992;47.490;8.736;2023-05-02T03:54:16;4.70;;;2.40;;
72117;SDS011;59992;47.490;8.736;2023-05-02T03:57:06;5.50;;;1.90;;
72117;SDS011;59992;47.490;8.736;2023-05-02T03:59:57;7.60;;;2.10;;
72117;SDS011;59992;47.490;8.736;2023-05-02T04:02:48;3.20;;;2.10;;
72117;SDS011;59992;47.490;8.736;2023-05-02T04:05:38;4.20;;;2.60;;
72117;SDS011;59992;47.490;8.736;2023-05-02T04:08:28;3.80;;;2.40;;
72117;SDS011;59992;47.490;8.736;2023-05-02T04:11:19;3.50;;;2.20;;
72117;SDS011;59992;47.490;8.736;2023-05-02T04:14:09;2.90;;;1.90;;
72117;SDS011;59992;47.490;8.736;2023-05-02T04:16:59;3.20;;;2.00;;
72117;SDS011;59992;47.490;8.736;2023-05-02T04:19:50;3.50;;;2.50;;
72117;SDS011;59992;47.490;8.736;2023-05-02T04:22:40;3.00;;;2.10;;
72117;SDS011;59992;47.490;8.736;2023-05-02T04:25:31;6.40;;;2.30;;
72117;SDS011;59992;47.490;8.736;2023-05-02T04:28:21;3.50;;;2.20;;
72117;SDS011;59992;47.490;8.736;2023-05-02T04:31:11;4.00;;;2.40;;
72117;SDS011;59992;47.490;8.736;2023-05-02T04:34:02;4.30;;;2.20;;
72117;SDS011;59992;47.490;8.736;2023-05-02T04:36:52;5.30;;;2.20;;
72117;SDS011;59992;47.490;8.736;2023-05-02T04:39:42;4.00;;;2.40;;
72117;SDS011;59992;47.490;8.736;2023-05-02T04:42:32;5.50;;;2.20;;
72117;SDS011;59992;47.490;8.736;2023-05-02T04:45:22;4.90;;;2.10;;
72117;SDS011;59992;47.490;8.736;2023-05-02T04:48:12;4.60;;;2.30;;
72117;SDS011;59992;47.490;8.736;2023-05-02T04:51:02;3.90;;;2.60;;
72117;SDS011;59992;47.490;8.736;2023-05-02T04:53:53;6.90;;;2.20;;
72117;SDS011;59992;47.490;8.736;2023-05-02T04:56:43;3.90;;;2.50;;
72117;SDS011;59992;47.490;8.736;2023-05-02T04:59:33;3.50;;;2.30;;
72117;SDS011;59992;47.490;8.736;2023-05-02T05:02:24;4.70;;;2.30;;
72117;SDS011;59992;47.490;8.736;2023-05-02T05:05:14;4.20;;;1.90;;
72117;SDS011;59992;47.490;8.736;2023-05-02T05:08:05;3.80;;;2.50;;
72117;SDS011;59992;47.490;8.736;2023-05-02T05:10:55;6.40;;;2.70;;
72117;SDS011;59992;47.490;8.736;2023-05-02T05:13:45;2.90;;;2.00;;
72117;SDS011;59992;47.490;8.736;2023-05-02T05:16:36;5.60;;;2.30;;
72117;SDS011;59992;47.490;8.736;2023-05-02T05:19:26;5.60;;;2.70;;
72117;SDS011;59992;47.490;8.736;2023-05-02T05:22:16;4.10;;;2.40;;
72117;SDS011;59992;47.490;8.736;2023-05-02T05:25:07;5.30;;;2.40;;
72117;SDS011;59992;47.490;8.736;2023-05-02T05:27:59;3.30;;;2.30;;
72117;SDS011;59992;47.490;8.736;2023-05-02T05:30:49;4.20;;;2.30;;
72117;SDS011;59992;47.490;8.736;2023-05-02T05:33:40;5.60;;;2.10;;
72117;SDS011;59992;47.490;8.736;2023-05-02T05:36:30;5.00;;;2.20;;
72117;SDS011;59992;47.490;8.736;2023-05-02T05:39:21;3.30;;;2.00;;
72117;SDS011;59992;47.490;8.736;2023-05-02T05:42:12;3.10;;;2.00;;
72117;SDS011;59992;47.490;8.736;2023-05-02T05:45:03;2.50;;;1.70;;
72117;SDS011;59992;47.490;8.736;2023-05-02T05:47:55;2.60;;;1.80;;
72117;SDS011;59992;47.490;8.736;2023-05-02T05:50:45;4.50;;;2.30;;
72117;SDS011;59992;47.490;8.736;2023-05-02T05:53:36;4.60;;;2.00;;
72117;SDS011;59992;47.490;8.736;2023-05-02T05:56:26;5.30;;;2.40;;
72117;SDS011;59992;47.490;8.736;2023-05-02T05:59:16;3.10;;;2.20;;
72117;SDS011;59992;47.490;8.736;2023-05-02T06:02:06;3.30;;;2.00;;
72117;SDS011;59992;47.490;8.736;2023-05-02T06:04:58;3.80;;;2.10;;
72117;SDS011;59992;47.490;8.736;2023-05-02T06:07:48;3.10;;;2.30;;
72117;SDS011;59992;47.490;8.736;2023-05-02T06:10:39;3.30;;;2.40;;
72117;SDS011;59992;47.490;8.736;2023-05-02T06:13:29;5.20;;;3.00;;
72117;SDS011;59992;47.490;8.736;2023-05-02T06:16:19;4.20;;;2.70;;
72117;SDS011;59992;47.490;8.736;2023-05-02T06:19:09;4.90;;;3.10;;
72117;SDS011;59992;47.490;8.736;2023-05-02T06:21:59;3.80;;;2.50;;
72117;SDS011;59992;47.490;8.736;2023-05-02T06:24:49;3.70;;;2.60;;
72117;SDS011;59992;47.490;8.736;2023-05-02T06:27:39;4.20;;;2.50;;
72117;SDS011;59992;47.490;8.736;2023-05-02T06:30:30;3.60;;;2.70;;
72117;SDS011;59992;47.490;8.736;2023-05-02T06:33:20;4.20;;;2.80;;
72117;SDS011;59992;47.490;8.736;2023-05-02T06:36:11;4.00;;;2.80;;
72117;SDS011;59992;47.490;8.736;2023-05-02T06:39:01;5.60;;;2.60;;
72117;SDS011;59992;47.490;8.736;2023-05-02T06:41:51;4.10;;;2.70;;
72117;SDS011;59992;47.490;8.736;2023-05-02T06:44:46;4.00;;;2.20;;
72117;SDS011;59992;47.490;8.736;2023-05-02T06:47:38;5.50;;;2.60;;
72117;SDS011;59992;47.490;8.736;2023-05-02T06:50:29;3.10;;;2.00;;
72117;SDS011;59992;47.490;8.736;2023-05-02T06:53:19;3.40;;;2.10;;
72117;SDS011;59992;47.490;8.736;2023-05-02T06:56:09;3.40;;;1.90;;
72117;SDS011;59992;47.490;8.736;2023-05-02T06:58:59;3.70;;;2.10;;
72117;SDS011;59992;47.490;8.736;2023-05-02T07:01:49;2.50;;;2.00;;
72117;SDS011;59992;47.490;8.736;2023-05-02T07:04:39;2.50;;;1.70;;
72117;SDS011;59992;47.490;8.736;2023-05-02T07:07:29;4.00;;;1.50;;
72117;SDS011;59992;47.490;8.736;2023-05-02T07:10:20;5.20;;;2.40;;
72117;SDS011;59992;47.490;8.736;2023-05-02T07:13:10;3.00;;;2.00;;
72117;SDS011;59992;47.490;8.736;2023-05-02T07:16:00;2.70;;;1.70;;
72117;SDS011;59992;47.490;8.736;2023-05-02T07:18:50;2.60;;;1.90;;
72117;SDS011;59992;47.490;8.736;2023-05-02T07:21:40;5.40;;;2.30;;
72117;SDS011;59992;47.490;8.736;2023-05-02T07:24:31;4.60;;;2.10;;
72117;SDS011;59992;47.490;8.736;2023-05-02T07:27:21;3.20;;;2.30;;
72117;SDS011;59992;47.490;8.736;2023-05-02T07:30:13;3.50;;;2.50;;
72117;SDS011;59992;47.490;8.736;2023-05-02T07:33:03;3.30;;;2.30;;
72117;SDS011;59992;47.490;8.736;2023-05-02T07:35:54;5.10;;;2.60;;
72117;SDS011;59992;47.490;8.736;2023-05-02T07:38:44;4.80;;;2.80;;
72117;SDS011;59992;47.490;8.736;2023-05-02T07:41:34;4.50;;;2.90;;
72117;SDS011;59992;47.490;8.736;2023-05-02T07:44:25;5.20;;;3.10;;
72117;SDS011;59992;47.490;8.736;2023-05-02T07:47:15;5.80;;;3.00;;
72117;SDS011;59992;47.490;8.736;2023-05-02T07:50:06;5.40;;;3.00;;
72117;SDS011;59992;47.490;8.736;2023-05-02T07:52:57;5.00;;;2.40;;
72117;SDS011;59992;47.490;8.736;2023-05-02T07:55:47;6.70;;;3.60;;
72117;SDS011;59992;47.490;8.736;2023-05-02T07:58:37;6.40;;;3.90;;
72117;SDS011;59992;47.490;8.736;2023-05-02T08:01:28;6.50;;;3.70;;
72117;SDS011;59992;47.490;8.736;2023-05-02T08:04:18;5.20;;;3.20;;
72117;SDS011;59992;47.490;8.736;2023-05-02T08:07:08;5.70;;;3.80;;
72117;SDS011;59992;47.490;8.736;2023-05-02T08:09:58;5.80;;;3.80;;
72117;SDS011;59992;47.490;8.736;2023-05-02T08:12:48;6.60;;;4.10;;
72117;SDS011;59992;47.490;8.736;2023-05-02T08:15:38;5.10;;;3.50;;
72117;SDS011;59992;47.490;8.736;2023-05-02T08:18:29;5.60;;;3.30;;
72117;SDS011;59992;47.490;8.736;2023-05-02T08:21:19;4.80;;;3.70;;
72117;SDS011;59992;47.490;8.736;2023-05-02T08:24:09;7.10;;;4.00;;
72117;SDS011;59992;47.490;8.736;2023-05-02T08:26:59;5.40;;;4.10;;
72117;SDS011;59992;47.490;8.736;2023-05-02T08:29:50;6.70;;;4.00;;
72117;SDS011;59992;47.490;8.736;2023-05-02T08:32:40;6.00;;;3.80;;
72117;SDS011;59992;47.490;8.736;2023-05-02T08:35:30;5.20;;;3.40;;
72117;SDS011;59992;47.490;8.736;2023-05-02T08:38:20;5.20;;;3.50;;
72117;SDS011;59992;47.490;8.736;2023-05-02T08:41:10;6.10;;;3.90;;
72117;SDS011;59992;47.490;8.736;2023-05-02T08:44:01;5.40;;;3.50;;
72117;SDS011;59992;47.490;8.736;2023-05-02T08:46:53;5.80;;;3.80;;
72117;SDS011;59992;47.490;8.736;2023-05-02T08:49:47;5.40;;;3.80;;
72117;SDS011;59992;47.490;8.736;2023-05-02T08:52:38;5.40;;;3.70;;
72117;SDS011;59992;47.490;8.736;2023-05-02T08:55:30;5.10;;;3.80;;
72117;SDS011;59992;47.490;8.736;2023-05-02T08:58:21;5.60;;;4.00;;
72117;SDS011;59992;47.490;8.736;2023-05-02T09:01:12;5.60;;;3.60;;
72117;SDS011;59992;47.490;8.736;2023-05-02T09:04:04;5.50;;;3.50;;
72117;SDS011;59992;47.490;8.736;2023-05-02T09:06:54;5.80;;;4.10;;
72117;SDS011;59992;47.490;8.736;2023-05-02T09:09:45;6.40;;;4.00;;
72117;SDS011;59992;47.490;8.736;2023-05-02T09:12:35;5.40;;;3.60;;
72117;SDS011;59992;47.490;8.736;2023-05-02T09:15:25;5.50;;;3.50;;
72117;SDS011;59992;47.490;8.736;2023-05-02T09:18:19;5.70;;;3.80;;
72117;SDS011;59992;47.490;8.736;2023-05-02T09:21:10;5.00;;;3.70;;
72117;SDS011;59992;47.490;8.736;2023-05-02T09:24:00;5.30;;;3.70;;
72117;SDS011;59992;47.490;8.736;2023-05-02T09:27:03;4.80;;;3.50;;
72117;SDS011;59992;47.490;8.736;2023-05-02T09:29:54;6.10;;;3.40;;
72117;SDS011;59992;47.490;8.736;2023-05-02T09:33:10;9.80;;;4.00;;
72117;SDS011;59992;47.490;8.736;2023-05-02T09:36:13;7.40;;;3.70;;
72117;SDS011;59992;47.490;8.736;2023-05-02T09:39:08;5.40;;;3.70;;
72117;SDS011;59992;47.490;8.736;2023-05-02T09:42:00;6.20;;;3.60;;
72117;SDS011;59992;47.490;8.736;2023-05-02T09:44:50;4.80;;;3.40;;
72117;SDS011;59992;47.490;8.736;2023-05-02T09:47:41;5.60;;;3.60;;
72117;SDS011;59992;47.490;8.736;2023-05-02T09:50:35;5.00;;;3.70;;
72117;SDS011;59992;47.490;8.736;2023-05-02T09:53:26;4.70;;;3.50;;
72117;SDS011;59992;47.490;8.736;2023-05-02T09:56:17;7.70;;;3.80;;
72117;SDS011;59992;47.490;8.736;2023-05-02T09:59:13;4.90;;;3.30;;
72117;SDS011;59992;47.490;8.736;2023-05-02T10:02:04;5.20;;;4.20;;
72117;SDS011;59992;47.490;8.736;2023-05-02T10:04:57;5.50;;;3.80;;
72117;SDS011;59992;47.490;8.736;2023-05-02T10:07:49;5.00;;;3.30;;
72117;SDS011;59992;47.490;8.736;2023-05-02T10:10:41;5.40;;;3.40;;
72117;SDS011;59992;47.490;8.736;2023-05-02T10:13:37;4.50;;;3.10;;
72117;SDS011;59992;47.490;8.736;2023-05-02T10:16:31;5.90;;;3.70;;
72117;SDS011;59992;47.490;8.736;2023-05-02T10:19:26;5.90;;;3.90;;
72117;SDS011;59992;47.490;8.736;2023-05-02T10:22:32;6.30;;;3.40;;
72117;SDS011;59992;47.490;8.736;2023-05-02T10:25:23;3.90;;;2.70;;
72117;SDS011;59992;47.490;8.736;2023-05-02T10:28:13;5.60;;;3.30;;
72117;SDS011;59992;47.490;8.736;2023-05-02T10:31:03;6.00;;;3.60;;
72117;SDS011;59992;47.490;8.736;2023-05-02T10:33:56;6.90;;;4.50;;
72117;SDS011;59992;47.490;8.736;2023-05-02T10:36:50;5.30;;;3.80;;
72117;SDS011;59992;47.490;8.736;2023-05-02T10:39:42;5.50;;;3.50;;
72117;SDS011;59992;47.490;8.736;2023-05-02T10:42:33;4.90;;;3.10;;
72117;SDS011;59992;47.490;8.736;2023-05-02T10:45:32;5.50;;;3.60;;
72117;SDS011;59992;47.490;8.736;2023-05-02T10:48:23;6.80;;;3.70;;
72117;SDS011;59992;47.490;8.736;2023-05-02T10:51:14;4.80;;;3.50;;
72117;SDS011;59992;47.490;8.736;2023-05-02T10:54:21;5.10;;;3.70;;
72117;SDS011;59992;47.490;8.736;2023-05-02T10:57:12;5.80;;;3.60;;
72117;SDS011;59992;47.490;8.736;2023-05-02T11:03:12;5.50;;;3.50;;
72117;SDS011;59992;47.490;8.736;2023-05-02T11:06:22;4.40;;;3.50;;
72117;SDS011;59992;47.490;8.736;2023-05-02T11:15:55;5.80;;;3.80;;
72117;SDS011;59992;47.490;8.736;2023-05-02T11:18:59;5.90;;;3.50;;
72117;SDS011;59992;47.490;8.736;2023-05-02T11:21:49;5.00;;;3.60;;
72117;SDS011;59992;47.490;8.736;2023-05-02T11:24:45;5.60;;;3.70;;
72117;SDS011;59992;47.490;8.736;2023-05-02T11:27:38;6.10;;;3.60;;
72117;SDS011;59992;47.490;8.736;2023-05-02T11:30:39;4.80;;;3.60;;
72117;SDS011;59992;47.490;8.736;2023-05-02T11:33:35;3.90;;;2.60;;
72117;SDS011;59992;47.490;8.736;2023-05-02T11:36:29;6.10;;;3.20;;
72117;SDS011;59992;47.490;8.736;2023-05-02T11:39:19;6.00;;;3.60;;
72117;SDS011;59992;47.490;8.736;2023-05-02T11:42:10;7.20;;;3.20;;
72117;SDS011;59992;47.490;8.736;2023-05-02T11:45:17;4.40;;;3.50;;
72117;SDS011;59992;47.490;8.736;2023-05-02T11:48:12;3.70;;;3.10;;
72117;SDS011;59992;47.490;8.736;2023-05-02T11:51:03;4.20;;;2.90;;
72117;SDS011;59992;47.490;8.736;2023-05-02T11:53:54;4.20;;;2.70;;
72117;SDS011;59992;47.490;8.736;2023-05-02T11:56:44;5.40;;;2.90;;
72117;SDS011;59992;47.490;8.736;2023-05-02T12:02:37;5.20;;;3.30;;
72117;SDS011;59992;47.490;8.736;2023-05-02T12:05:29;5.30;;;3.60;;
72117;SDS011;59992;47.490;8.736;2023-05-02T12:08:22;4.10;;;3.10;;
72117;SDS011;59992;47.490;8.736;2023-05-02T12:11:14;4.50;;;2.90;;
72117;SDS011;59992;47.490;8.736;2023-05-02T12:14:05;6.10;;;3.00;;
72117;SDS011;59992;47.490;8.736;2023-05-02T12:16:56;4.00;;;3.00;;
72117;SDS011;59992;47.490;8.736;2023-05-02T12:19:48;8.80;;;3.30;;
72117;SDS011;59992;47.490;8.736;2023-05-02T12:22:38;6.70;;;3.10;;
72117;SDS011;59992;47.490;8.736;2023-05-02T12:25:28;12.10;;;4.00;;
72117;SDS011;59992;47.490;8.736;2023-05-02T12:28:19;6.50;;;3.70;;
72117;SDS011;59992;47.490;8.736;2023-05-02T12:31:10;5.10;;;3.00;;
72117;SDS011;59992;47.490;8.736;2023-05-02T12:34:00;5.20;;;3.30;;
72117;SDS011;59992;47.490;8.736;2023-05-02T12:36:50;4.90;;;4.00;;
72117;SDS011;59992;47.490;8.736;2023-05-02T12:39:41;5.70;;;3.70;;
72117;SDS011;59992;47.490;8.736;2023-05-02T12:42:31;6.20;;;4.50;;
72117;SDS011;59992;47.490;8.736;2023-05-02T12:45:21;5.30;;;3.90;;
72117;SDS011;59992;47.490;8.736;2023-05-02T12:48:19;5.50;;;3.70;;
72117;SDS011;59992;47.490;8.736;2023-05-02T12:51:20;5.70;;;3.50;;
72117;SDS011;59992;47.490;8.736;2023-05-02T12:54:18;2.90;;;2.30;;
72117;SDS011;59992;47.490;8.736;2023-05-02T12:57:09;4.50;;;2.40;;
72117;SDS011;59992;47.490;8.736;2023-05-02T13:00:10;4.20;;;2.40;;
72117;SDS011;59992;47.490;8.736;2023-05-02T13:03:03;5.20;;;3.10;;
72117;SDS011;59992;47.490;8.736;2023-05-02T13:05:55;5.80;;;3.30;;
72117;SDS011;59992;47.490;8.736;2023-05-02T13:08:45;4.60;;;3.00;;
72117;SDS011;59992;47.490;8.736;2023-05-02T13:11:36;5.50;;;3.10;;
72117;SDS011;59992;47.490;8.736;2023-05-02T13:14:26;3.80;;;2.70;;
72117;SDS011;59992;47.490;8.736;2023-05-02T13:17:17;5.60;;;3.50;;
72117;SDS011;59992;47.490;8.736;2023-05-02T13:20:08;5.60;;;3.30;;
72117;SDS011;59992;47.490;8.736;2023-05-02T13:22:59;7.00;;;2.60;;
72117;SDS011;59992;47.490;8.736;2023-05-02T13:25:50;3.90;;;2.80;;
72117;SDS011;59992;47.490;8.736;2023-05-02T13:28:40;4.00;;;2.80;;
72117;SDS011;59992;47.490;8.736;2023-05-02T13:31:31;6.10;;;2.90;;
72117;SDS011;59992;47.490;8.736;2023-05-02T13:34:21;5.30;;;3.10;;
72117;SDS011;59992;47.490;8.736;2023-05-02T13:37:11;3.80;;;2.40;;
72117;SDS011;59992;47.490;8.736;2023-05-02T13:40:01;3.00;;;2.30;;
72117;SDS011;59992;47.490;8.736;2023-05-02T13:42:52;3.00;;;2.00;;
72117;SDS011;59992;47.490;8.736;2023-05-02T13:45:42;3.40;;;2.30;;
72117;SDS011;59992;47.490;8.736;2023-05-02T13:48:34;3.70;;;2.10;;
72117;SDS011;59992;47.490;8.736;2023-05-02T13:51:24;2.90;;;1.80;;
72117;SDS011;59992;47.490;8.736;2023-05-02T13:54:15;2.50;;;1.90;;
72117;SDS011;59992;47.490;8.736;2023-05-02T13:57:05;4.40;;;2.00;;
72117;SDS011;59992;47.490;8.736;2023-05-02T13:59:56;1.60;;;1.20;;
72117;SDS011;59992;47.490;8.736;2023-05-02T14:02:46;1.50;;;1.10;;
72117;SDS011;59992;47.490;8.736;2023-05-02T14:05:36;1.80;;;1.20;;
72117;SDS011;59992;47.490;8.736;2023-05-02T14:08:30;3.10;;;1.30;;
72117;SDS011;59992;47.490;8.736;2023-05-02T14:11:20;1.50;;;1.20;;
72117;SDS011;59992;47.490;8.736;2023-05-02T14:14:10;1.80;;;1.30;;
72117;SDS011;59992;47.490;8.736;2023-05-02T14:17:00;1.70;;;1.30;;
72117;SDS011;59992;47.490;8.736;2023-05-02T14:19:52;1.90;;;1.10;;
72117;SDS011;59992;47.490;8.736;2023-05-02T14:22:42;1.40;;;0.90;;
72117;SDS011;59992;47.490;8.736;2023-05-02T14:25:32;3.80;;;1.50;;
72117;SDS011;59992;47.490;8.736;2023-05-02T14:28:22;2.00;;;1.30;;
72117;SDS011;59992;47.490;8.736;2023-05-02T14:31:13;2.00;;;1.30;;
72117;SDS011;59992;47.490;8.736;2023-05-02T14:34:03;3.80;;;1.20;;
72117;SDS011;59992;47.490;8.736;2023-05-02T14:36:53;1.60;;;1.30;;
72117;SDS011;59992;47.490;8.736;2023-05-02T14:39:43;1.40;;;1.10;;
72117;SDS011;59992;47.490;8.736;2023-05-02T14:42:35;2.30;;;1.10;;
72117;SDS011;59992;47.490;8.736;2023-05-02T14:45:25;1.40;;;1.20;;
72117;SDS011;59992;47.490;8.736;2023-05-02T14:48:15;1.80;;;1.10;;
72117;SDS011;59992;47.490;8.736;2023-05-02T14:51:05;1.70;;;1.20;;
72117;SDS011;59992;47.490;8.736;2023-05-02T14:53:56;1.40;;;0.90;;
72117;SDS011;59992;47.490;8.736;2023-05-02T14:56:46;1.40;;;1.20;;
72117;SDS011;59992;47.490;8.736;2023-05-02T14:59:39;1.50;;;1.20;;
72117;SDS011;59992;47.490;8.736;2023-05-02T15:02:29;1.60;;;0.90;;
72117;SDS011;59992;47.490;8.736;2023-05-02T15:05:19;1.90;;;1.20;;
72117;SDS011;59992;47.490;8.736;2023-05-02T15:08:10;1.30;;;1.00;;
72117;SDS011;59992;47.490;8.736;2023-05-02T15:11:00;2.00;;;1.20;;
72117;SDS011;59992;47.490;8.736;2023-05-02T15:13:51;2.20;;;1.20;;
72117;SDS011;59992;47.490;8.736;2023-05-02T15:16:41;2.00;;;1.00;;
72117;SDS011;59992;47.490;8.736;2023-05-02T15:19:31;1.80;;;1.00;;
72117;SDS011;59992;47.490;8.736;2023-05-02T15:22:22;1.60;;;1.10;;
72117;SDS011;59992;47.490;8.736;2023-05-02T15:25:12;3.70;;;2.20;;
72117;SDS011;59992;47.490;8.736;2023-05-02T15:28:03;1.70;;;1.40;;
72117;SDS011;59992;47.490;8.736;2023-05-02T15:30:54;2.90;;;1.60;;
72117;SDS011;59992;47.490;8.736;2023-05-02T15:33:44;2.40;;;1.90;;
72117;SDS011;59992;47.490;8.736;2023-05-02T15:36:35;2.70;;;1.80;;
72117;SDS011;59992;47.490;8.736;2023-05-02T15:39:25;2.90;;;1.90;;
72117;SDS011;59992;47.490;8.736;2023-05-02T15:42:15;3.30;;;2.10;;
72117;SDS011;59992;47.490;8.736;2023-05-02T15:45:06;2.10;;;1.70;;
72117;SDS011;59992;47.490;8.736;2023-05-02T15:47:58;3.10;;;1.70;;
72117;SDS011;59992;47.490;8.736;2023-05-02T15:50:49;2.60;;;1.80;;
72117;SDS011;59992;47.490;8.736;2023-05-02T15:53:39;1.70;;;1.50;;
72117;SDS011;59992;47.490;8.736;2023-05-02T15:56:30;2.60;;;1.70;;
72117;SDS011;59992;47.490;8.736;2023-05-02T15:59:20;4.50;;;1.70;;
72117;SDS011;59992;47.490;8.736;2023-05-02T16:02:10;2.10;;;1.40;;
72117;SDS011;59992;47.490;8.736;2023-05-02T16:05:01;2.80;;;1.60;;
72117;SDS011;59992;47.490;8.736;2023-05-02T16:07:52;3.70;;;1.50;;
72117;SDS011;59992;47.490;8.736;2023-05-02T16:10:42;5.90;;;1.80;;
72117;SDS011;59992;47.490;8.736;2023-05-02T16:13:32;3.10;;;1.80;;
72117;SDS011;59992;47.490;8.736;2023-05-02T16:16:23;2.30;;;1.60;;
72117;SDS011;59992;47.490;8.736;2023-05-02T16:19:13;2.50;;;1.80;;
72117;SDS011;59992;47.490;8.736;2023-05-02T16:22:03;2.50;;;1.80;;
72117;SDS011;59992;47.490;8.736;2023-05-02T16:24:53;2.30;;;1.60;;
72117;SDS011;59992;47.490;8.736;2023-05-02T16:27:43;5.90;;;2.00;;
72117;SDS011;59992;47.490;8.736;2023-05-02T16:30:35;3.50;;;1.60;;
72117;SDS011;59992;47.490;8.736;2023-05-02T16:33:25;2.80;;;1.60;;
72117;SDS011;59992;47.490;8.736;2023-05-02T16:36:15;3.30;;;1.80;;
72117;SDS011;59992;47.490;8.736;2023-05-02T16:39:06;3.80;;;2.10;;
72117;SDS011;59992;47.490;8.736;2023-05-02T16:41:57;5.40;;;2.50;;
72117;SDS011;59992;47.490;8.736;2023-05-02T16:44:48;2.80;;;1.70;;
72117;SDS011;59992;47.490;8.736;2023-05-02T16:47:38;2.70;;;1.70;;
72117;SDS011;59992;47.490;8.736;2023-05-02T16:50:29;3.40;;;2.10;;
72117;SDS011;59992;47.490;8.736;2023-05-02T16:53:19;3.00;;;1.90;;
72117;SDS011;59992;47.490;8.736;2023-05-02T16:56:10;2.90;;;2.00;;
72117;SDS011;59992;47.490;8.736;2023-05-02T16:59:00;3.90;;;2.00;;
72117;SDS011;59992;47.490;8.736;2023-05-02T17:01:51;3.50;;;2.00;;
72117;SDS011;59992;47.490;8.736;2023-05-02T17:04:41;3.10;;;1.90;;
72117;SDS011;59992;47.490;8.736;2023-05-02T17:07:32;4.70;;;2.30;;
72117;SDS011;59992;47.490;8.736;2023-05-02T17:10:22;3.50;;;2.30;;
72117;SDS011;59992;47.490;8.736;2023-05-02T17:13:12;3.10;;;2.30;;
72117;SDS011;59992;47.490;8.736;2023-05-02T17:16:02;4.00;;;2.70;;
72117;SDS011;59992;47.490;8.736;2023-05-02T17:18:54;6.30;;;2.60;;
72117;SDS011;59992;47.490;8.736;2023-05-02T17:21:44;3.00;;;2.20;;
72117;SDS011;59992;47.490;8.736;2023-05-02T17:24:35;4.30;;;2.20;;
72117;SDS011;59992;47.490;8.736;2023-05-02T17:27:26;4.10;;;2.40;;